sensor_id;sensor_type;location;lat;lon;timestamp;pressure;altitude;pressure_sealevel;temperature;humidity
56811;BME280;42691;47.234;27.494;2022-11-20T00:03:34;99758.72;;;8.05;100.00
56811;BME280;42691;47.234;27.494;2022-11-20T00:06:01;99772.47;;;8.07;100.00
56811;BME280;42691;47.234;27.494;2022-11-20T00:08:27;99777.69;;;8.06;100.00
56811;BME280;42691;47.234;27.494;2022-11-20T00:10:52;99778.81;;;7.99;100.00
56811;BME280;42691;47.234;27.494;2022-11-20T00:13:18;99781.59;;;7.94;100.00
56811;BME280;42691;47.234;27.494;2022-11-20T00:15:43;99784.44;;;7.87;100.00
56811;BME280;42691;47.234;27.494;2022-11-20T00:18:08;99773.72;;;7.72;100.00
56811;BME280;42691;47.234;27.494;2022-11-20T00:20:34;99789.19;;;7.74;100.00
56811;BME280;42691;47.234;27.494;2022-11-20T00:22:59;99799.66;;;7.71;100.00
56811;BME280;42691;47.234;27.494;2022-11-20T00:25:25;99804.84;;;7.71;100.00
56811;BME280;42691;47.234;27.494;2022-11-20T00:27:50;99806.53;;;7.72;100.00
56811;BME280;42691;47.234;27.494;2022-11-20T00:30:16;99795.44;;;7.68;100.00
56811;BME280;42691;47.234;27.494;2022-11-20T00:32:41;99796.38;;;7.66;100.00
56811;BME280;42691;47.234;27.494;2022-11-20T00:35:07;99799.81;;;7.66;100.00
56811;BME280;42691;47.234;27.494;2022-11-20T00:37:32;99799.09;;;7.63;100.00
56811;BME280;42691;47.234;27.494;2022-11-20T00:39:57;99798.41;;;7.58;100.00
56811;BME280;42691;47.234;27.494;2022-11-20T00:42:23;99786.63;;;7.49;100.00
56811;BME280;42691;47.234;27.494;2022-11-20T00:44:48;99786.94;;;7.38;100.00
56811;BME280;42691;47.234;27.494;2022-11-20T00:47:14;99787.09;;;7.34;100.00
56811;BME280;42691;47.234;27.494;2022-11-20T00:49:39;99777.75;;;7.30;100.00
56811;BME280;42691;47.234;27.494;2022-11-20T00:52:05;99784.28;;;7.15;100.00
56811;BME280;42691;47.234;27.494;2022-11-20T00:54:30;99783.59;;;7.10;100.00
56811;BME280;42691;47.234;27.494;2022-11-20T00:56:55;99783.66;;;7.08;100.00
56811;BME280;42691;47.234;27.494;2022-11-20T00:59:21;99770.19;;;6.97;100.00
56811;BME280;42691;47.234;27.494;2022-11-20T01:01:46;99775.22;;;7.02;100.00
56811;BME280;42691;47.234;27.494;2022-11-20T01:04:12;99764.28;;;6.94;100.00
56811;BME280;42691;47.234;27.494;2022-11-20T01:06:38;99766.91;;;6.92;100.00
56811;BME280;42691;47.234;27.494;2022-11-20T01:09:09;99764.38;;;6.90;100.00
56811;BME280;42691;47.234;27.494;2022-11-20T01:11:37;99756.66;;;6.89;100.00
56811;BME280;42691;47.234;27.494;2022-11-20T01:14:05;99746.38;;;6.87;100.00
56811;BME280;42691;47.234;27.494;2022-11-20T01:16:33;99751.53;;;6.87;100.00
56811;BME280;42691;47.234;27.494;2022-11-20T01:19:00;99737.13;;;6.80;100.00
56811;BME280;42691;47.234;27.494;2022-11-20T01:21:31;99724.88;;;6.85;100.00
56811;BME280;42691;47.234;27.494;2022-11-20T01:23:57;99721.72;;;6.77;100.00
56811;BME280;42691;47.234;27.494;2022-11-20T01:26:25;99709.94;;;6.67;100.00
56811;BME280;42691;47.234;27.494;2022-11-20T01:28:52;99713.06;;;6.78;100.00
56811;BME280;42691;47.234;27.494;2022-11-20T01:31:23;99703.56;;;6.79;100.00
56811;BME280;42691;47.234;27.494;2022-11-20T01:33:51;99707.03;;;6.78;100.00
56811;BME280;42691;47.234;27.494;2022-11-20T01:36:18;99691.78;;;6.70;100.00
56811;BME280;42691;47.234;27.494;2022-11-20T01:38:44;99689.38;;;6.64;100.00
56811;BME280;42691;47.234;27.494;2022-11-20T01:41:11;99681.81;;;6.58;100.00
56811;BME280;42691;47.234;27.494;2022-11-20T01:43:56;99681.66;;;6.63;100.00
56811;BME280;42691;47.234;27.494;2022-11-20T01:46:22;99672.16;;;6.63;100.00
56811;BME280;42691;47.234;27.494;2022-11-20T01:48:54;99675.66;;;6.62;100.00
56811;BME280;42691;47.234;27.494;2022-11-20T01:51:44;99656.06;;;6.55;100.00
56811;BME280;42691;47.234;27.494;2022-11-20T01:54:22;99667.06;;;6.62;100.00
56811;BME280;42691;47.234;27.494;2022-11-20T01:56:51;99656.66;;;6.63;100.00
56811;BME280;42691;47.234;27.494;2022-11-20T01:59:20;99652.63;;;6.54;100.00
56811;BME280;42691;47.234;27.494;2022-11-20T02:01:47;99646.91;;;6.45;100.00
56811;BME280;42691;47.234;27.494;2022-11-20T02:04:13;99653.44;;;6.56;100.00
56811;BME280;42691;47.234;27.494;2022-11-20T02:09:11;99656.97;;;6.54;100.00
56811;BME280;42691;47.234;27.494;2022-11-20T02:11:37;99652.63;;;6.54;100.00
56811;BME280;42691;47.234;27.494;2022-11-20T02:14:02;99653.69;;;6.49;100.00
56811;BME280;42691;47.234;27.494;2022-11-20T02:16:34;99651.78;;;6.54;100.00
56811;BME280;42691;47.234;27.494;2022-11-20T02:19:01;99658.75;;;6.52;100.00
56811;BME280;42691;47.234;27.494;2022-11-20T02:24:15;99651.59;;;6.60;100.00
56811;BME280;42691;47.234;27.494;2022-11-20T02:27:00;99660.03;;;6.65;100.00
56811;BME280;42691;47.234;27.494;2022-11-20T02:30:00;99660.13;;;6.62;100.00
56811;BME280;42691;47.234;27.494;2022-11-20T02:32:28;99660.81;;;6.67;100.00
56811;BME280;42691;47.234;27.494;2022-11-20T02:34:54;99657.31;;;6.70;100.00
56811;BME280;42691;47.234;27.494;2022-11-20T02:37:20;99665.09;;;6.70;100.00
56811;BME280;42691;47.234;27.494;2022-11-20T02:39:48;99660.75;;;6.70;100.00
56811;BME280;42691;47.234;27.494;2022-11-20T02:42:15;99666.16;;;6.63;100.00
56811;BME280;42691;47.234;27.494;2022-11-20T02:44:40;99646.72;;;6.51;100.00
56811;BME280;42691;47.234;27.494;2022-11-20T02:47:05;99655.97;;;6.58;100.00
56811;BME280;42691;47.234;27.494;2022-11-20T02:49:31;99638.06;;;6.52;100.00
56811;BME280;42691;47.234;27.494;2022-11-20T02:51:56;99646.56;;;6.55;100.00
56811;BME280;42691;47.234;27.494;2022-11-20T02:54:22;99640.81;;;6.47;100.00
56811;BME280;42691;47.234;27.494;2022-11-20T02:56:48;99636.47;;;6.48;100.00
56811;BME280;42691;47.234;27.494;2022-11-20T02:59:13;99628.03;;;6.43;100.00
56811;BME280;42691;47.234;27.494;2022-11-20T03:01:39;99624.75;;;6.38;100.00
56811;BME280;42691;47.234;27.494;2022-11-20T03:04:04;99609.91;;;6.44;100.00
56811;BME280;42691;47.234;27.494;2022-11-20T03:06:30;99612.44;;;6.46;100.00
56811;BME280;42691;47.234;27.494;2022-11-20T03:08:55;99604.09;;;6.38;100.00
56811;BME280;42691;47.234;27.494;2022-11-20T03:11:21;99600.88;;;6.30;100.00
56811;BME280;42691;47.234;27.494;2022-11-20T03:13:46;99600.88;;;6.30;100.00
56811;BME280;42691;47.234;27.494;2022-11-20T03:16:17;99597.59;;;6.24;100.00
56811;BME280;42691;47.234;27.494;2022-11-20T03:18:43;99585.88;;;6.14;100.00
56811;BME280;42691;47.234;27.494;2022-11-20T03:21:10;99577.63;;;6.03;100.00
56811;BME280;42691;47.234;27.494;2022-11-20T03:23:38;99576.59;;;6.09;100.00
56811;BME280;42691;47.234;27.494;2022-11-20T03:26:24;99582.00;;;6.01;100.00
56811;BME280;42691;47.234;27.494;2022-11-20T03:28:56;99570.72;;;6.04;100.00
56811;BME280;42691;47.234;27.494;2022-11-20T03:31:34;99563.22;;;5.96;100.00
56811;BME280;42691;47.234;27.494;2022-11-20T03:34:00;99561.00;;;6.12;100.00
56811;BME280;42691;47.234;27.494;2022-11-20T03:36:26;99555.19;;;6.05;100.00
56811;BME280;42691;47.234;27.494;2022-11-20T03:38:56;99555.84;;;6.12;100.00
56811;BME280;42691;47.234;27.494;2022-11-20T03:41:26;99543.03;;;6.09;100.00
56811;BME280;42691;47.234;27.494;2022-11-20T03:43:54;99534.44;;;6.08;100.00
56811;BME280;42691;47.234;27.494;2022-11-20T03:46:20;99527.72;;;6.03;100.00
56811;BME280;42691;47.234;27.494;2022-11-20T03:48:46;99532.44;;;6.16;100.00
56811;BME280;42691;47.234;27.494;2022-11-20T03:51:17;99537.41;;;6.22;100.00
56811;BME280;42691;47.234;27.494;2022-11-20T03:53:44;99533.72;;;6.30;100.00
56811;BME280;42691;47.234;27.494;2022-11-20T03:56:11;99523.22;;;6.09;100.00
56811;BME280;42691;47.234;27.494;2022-11-20T03:58:38;99511.13;;;6.10;100.00
56811;BME280;42691;47.234;27.494;2022-11-20T04:01:16;99497.44;;;6.08;100.00
56811;BME280;42691;47.234;27.494;2022-11-20T04:03:43;99496.47;;;6.10;100.00
56811;BME280;42691;47.234;27.494;2022-11-20T04:06:14;99488.03;;;6.05;100.00
56811;BME280;42691;47.234;27.494;2022-11-20T04:08:41;99481.88;;;6.09;100.00
56811;BME280;42691;47.234;27.494;2022-11-20T04:13:40;99486.09;;;6.12;100.00
56811;BME280;42691;47.234;27.494;2022-11-20T04:16:07;99479.94;;;6.16;100.00
56811;BME280;42691;47.234;27.494;2022-11-20T04:18:33;99488.22;;;6.25;100.00
56811;BME280;42691;47.234;27.494;2022-11-20T04:20:59;99484.75;;;6.26;100.00
56811;BME280;42691;47.234;27.494;2022-11-20T04:23:25;99481.19;;;6.29;100.00
56811;BME280;42691;47.234;27.494;2022-11-20T04:25:50;99471.81;;;6.26;100.00
56811;BME280;42691;47.234;27.494;2022-11-20T04:28:16;99478.28;;;6.40;100.00
56811;BME280;42691;47.234;27.494;2022-11-20T04:30:41;99477.16;;;6.47;100.00
56811;BME280;42691;47.234;27.494;2022-11-20T04:33:07;99463.50;;;6.43;100.00
56811;BME280;42691;47.234;27.494;2022-11-20T04:35:37;99472.72;;;6.50;100.00
56811;BME280;42691;47.234;27.494;2022-11-20T04:38:03;99464.03;;;6.53;100.00
56811;BME280;42691;47.234;27.494;2022-11-20T04:40:29;99457.06;;;6.55;100.00
56811;BME280;42691;47.234;27.494;2022-11-20T04:42:55;99438.50;;;6.44;100.00
56811;BME280;42691;47.234;27.494;2022-11-20T04:45:21;99460.88;;;6.45;100.00
56811;BME280;42691;47.234;27.494;2022-11-20T04:47:47;99456.38;;;6.50;100.00
56811;BME280;42691;47.234;27.494;2022-11-20T04:50:12;99456.22;;;6.54;100.00
56811;BME280;42691;47.234;27.494;2022-11-20T04:52:38;99458.84;;;6.53;100.00
56811;BME280;42691;47.234;27.494;2022-11-20T04:55:04;99459.75;;;6.52;100.00
56811;BME280;42691;47.234;27.494;2022-11-20T04:57:29;99442.41;;;6.55;100.00
56811;BME280;42691;47.234;27.494;2022-11-20T04:59:55;99446.94;;;6.49;100.00
56811;BME280;42691;47.234;27.494;2022-11-20T05:02:20;99429.03;;;6.44;100.00
56811;BME280;42691;47.234;27.494;2022-11-20T05:04:46;99432.28;;;6.49;100.00
56811;BME280;42691;47.234;27.494;2022-11-20T05:07:11;99443.25;;;6.56;100.00
56811;BME280;42691;47.234;27.494;2022-11-20T05:09:36;99438.75;;;6.61;100.00
56811;BME280;42691;47.234;27.494;2022-11-20T05:12:02;99435.94;;;6.67;100.00
56811;BME280;42691;47.234;27.494;2022-11-20T05:14:28;99433.28;;;6.70;100.00
56811;BME280;42691;47.234;27.494;2022-11-20T05:16:53;99425.28;;;6.76;100.00
56811;BME280;42691;47.234;27.494;2022-11-20T05:19:18;99425.19;;;6.79;100.00
56811;BME280;42691;47.234;27.494;2022-11-20T05:21:44;99406.28;;;6.77;100.00
56811;BME280;42691;47.234;27.494;2022-11-20T05:24:09;99398.66;;;6.74;100.00
56811;BME280;42691;47.234;27.494;2022-11-20T05:26:35;99394.25;;;6.76;100.00
56811;BME280;42691;47.234;27.494;2022-11-20T05:29:00;99400.16;;;6.80;100.00
56811;BME280;42691;47.234;27.494;2022-11-20T05:31:26;99412.38;;;6.76;100.00
56811;BME280;42691;47.234;27.494;2022-11-20T05:33:51;99414.94;;;6.76;100.00
56811;BME280;42691;47.234;27.494;2022-11-20T05:36:17;99422.53;;;6.81;100.00
56811;BME280;42691;47.234;27.494;2022-11-20T05:38:44;99425.97;;;6.81;100.00
56811;BME280;42691;47.234;27.494;2022-11-20T05:41:11;99420.72;;;6.83;100.00
56811;BME280;42691;47.234;27.494;2022-11-20T05:43:38;99417.25;;;6.84;100.00
56811;BME280;42691;47.234;27.494;2022-11-20T05:46:05;99395.84;;;6.80;100.00
56811;BME280;42691;47.234;27.494;2022-11-20T05:48:32;99383.69;;;6.82;100.00
56811;BME280;42691;47.234;27.494;2022-11-20T05:51:02;99370.66;;;6.85;100.00
56811;BME280;42691;47.234;27.494;2022-11-20T05:53:28;99363.00;;;6.82;100.00
56811;BME280;42691;47.234;27.494;2022-11-20T05:56:01;99345.81;;;6.81;100.00
56811;BME280;42691;47.234;27.494;2022-11-20T05:58:27;99335.28;;;6.86;100.00
56811;BME280;42691;47.234;27.494;2022-11-20T06:00:53;99330.84;;;6.89;100.00
56811;BME280;42691;47.234;27.494;2022-11-20T06:03:19;99352.78;;;7.01;100.00
56811;BME280;42691;47.234;27.494;2022-11-20T06:05:44;99375.84;;;7.07;100.00
56811;BME280;42691;47.234;27.494;2022-11-20T06:08:10;99404.19;;;7.10;100.00
56811;BME280;42691;47.234;27.494;2022-11-20T06:10:35;99406.59;;;7.15;100.00
56811;BME280;42691;47.234;27.494;2022-11-20T06:13:00;99427.06;;;7.21;100.00
56811;BME280;42691;47.234;27.494;2022-11-20T06:15:26;99429.50;;;7.24;100.00
56811;BME280;42691;47.234;27.494;2022-11-20T06:17:52;99431.97;;;7.27;100.00
56811;BME280;42691;47.234;27.494;2022-11-20T06:20:19;99429.28;;;7.30;100.00
56811;BME280;42691;47.234;27.494;2022-11-20T06:22:44;99422.94;;;7.37;100.00
56811;BME280;42691;47.234;27.494;2022-11-20T06:25:10;99414.06;;;7.44;100.00
56811;BME280;42691;47.234;27.494;2022-11-20T06:27:35;99411.34;;;7.47;100.00
56811;BME280;42691;47.234;27.494;2022-11-20T06:30:00;99417.19;;;7.52;100.00
56811;BME280;42691;47.234;27.494;2022-11-20T06:32:26;99400.09;;;7.48;100.00
56811;BME280;42691;47.234;27.494;2022-11-20T06:34:51;99384.56;;;7.48;100.00
56811;BME280;42691;47.234;27.494;2022-11-20T06:37:17;99377.84;;;7.44;100.00
56811;BME280;42691;47.234;27.494;2022-11-20T06:39:42;99375.06;;;7.49;100.00
56811;BME280;42691;47.234;27.494;2022-11-20T06:42:08;99373.19;;;7.52;100.00
56811;BME280;42691;47.234;27.494;2022-11-20T06:44:33;99368.78;;;7.55;100.00
56811;BME280;42691;47.234;27.494;2022-11-20T06:46:59;99372.03;;;7.60;100.00
56811;BME280;42691;47.234;27.494;2022-11-20T06:49:25;99367.63;;;7.62;100.00
56811;BME280;42691;47.234;27.494;2022-11-20T06:51:50;99365.03;;;7.62;100.00
56811;BME280;42691;47.234;27.494;2022-11-20T06:54:16;99358.19;;;7.61;100.00
56811;BME280;42691;47.234;27.494;2022-11-20T06:56:41;99321.97;;;7.39;100.00
56811;BME280;42691;47.234;27.494;2022-11-20T06:59:07;99348.09;;;7.55;100.00
56811;BME280;42691;47.234;27.494;2022-11-20T07:01:33;99334.44;;;7.51;100.00
56811;BME280;42691;47.234;27.494;2022-11-20T07:03:58;99351.84;;;7.47;100.00
56811;BME280;42691;47.234;27.494;2022-11-20T07:06:23;99356.09;;;7.48;100.00
56811;BME280;42691;47.234;27.494;2022-11-20T07:08:50;99336.06;;;7.32;100.00
56811;BME280;42691;47.234;27.494;2022-11-20T07:11:17;99369.03;;;7.48;100.00
56811;BME280;42691;47.234;27.494;2022-11-20T07:13:43;99374.41;;;7.44;100.00
56811;BME280;42691;47.234;27.494;2022-11-20T07:16:08;99377.84;;;7.44;100.00
56811;BME280;42691;47.234;27.494;2022-11-20T07:18:34;99385.47;;;7.47;100.00
56811;BME280;42691;47.234;27.494;2022-11-20T07:21:01;99369.25;;;7.42;100.00
56811;BME280;42691;47.234;27.494;2022-11-20T07:23:27;99368.91;;;7.51;100.00
56811;BME280;42691;47.234;27.494;2022-11-20T07:25:52;99385.03;;;7.58;100.00
56811;BME280;42691;47.234;27.494;2022-11-20T07:28:18;99402.13;;;7.62;100.00
56811;BME280;42691;47.234;27.494;2022-11-20T07:30:49;99375.66;;;7.56;100.00
56811;BME280;42691;47.234;27.494;2022-11-20T07:33:15;99365.50;;;7.71;100.00
56811;BME280;42691;47.234;27.494;2022-11-20T07:35:40;99354.03;;;7.77;100.00
56811;BME280;42691;47.234;27.494;2022-11-20T07:38:06;99341.03;;;7.78;100.00
56811;BME280;42691;47.234;27.494;2022-11-20T07:40:31;99341.88;;;7.79;100.00
56811;BME280;42691;47.234;27.494;2022-11-20T07:42:57;99342.78;;;7.78;100.00
56811;BME280;42691;47.234;27.494;2022-11-20T07:45:24;99340.97;;;7.80;100.00
56811;BME280;42691;47.234;27.494;2022-11-20T07:47:50;99331.41;;;7.82;100.00
56811;BME280;42691;47.234;27.494;2022-11-20T07:50:15;99333.19;;;7.80;100.00
56811;BME280;42691;47.234;27.494;2022-11-20T07:52:41;99330.66;;;7.78;100.00
56811;BME280;42691;47.234;27.494;2022-11-20T07:55:07;99345.38;;;7.78;100.00
56811;BME280;42691;47.234;27.494;2022-11-20T07:57:33;99345.28;;;7.79;100.00
56811;BME280;42691;47.234;27.494;2022-11-20T07:59:59;99346.19;;;7.78;100.00
56811;BME280;42691;47.234;27.494;2022-11-20T08:02:24;99360.81;;;7.81;100.00
56811;BME280;42691;47.234;27.494;2022-11-20T08:04:50;99362.47;;;7.82;100.00
56811;BME280;42691;47.234;27.494;2022-11-20T08:07:15;99346.28;;;7.77;100.00
56811;BME280;42691;47.234;27.494;2022-11-20T08:09:41;99347.19;;;7.76;100.00
56811;BME280;42691;47.234;27.494;2022-11-20T08:12:06;99332.03;;;7.67;100.00
56811;BME280;42691;47.234;27.494;2022-11-20T08:14:50;99335.66;;;7.63;100.00
56811;BME280;42691;47.234;27.494;2022-11-20T08:17:16;99315.22;;;7.57;100.00
56811;BME280;42691;47.234;27.494;2022-11-20T08:19:41;99304.91;;;7.55;100.00
56811;BME280;42691;47.234;27.494;2022-11-20T08:22:07;99295.47;;;7.54;100.00
56811;BME280;42691;47.234;27.494;2022-11-20T08:24:32;99278.66;;;7.44;100.00
56811;BME280;42691;47.234;27.494;2022-11-20T08:26:58;99302.13;;;7.60;100.00
56811;BME280;42691;47.234;27.494;2022-11-20T08:29:25;99305.31;;;7.66;100.00
56811;BME280;42691;47.234;27.494;2022-11-20T08:31:51;99271.28;;;7.55;100.00
56811;BME280;42691;47.234;27.494;2022-11-20T08:34:16;99276.00;;;7.66;100.00
56811;BME280;42691;47.234;27.494;2022-11-20T08:36:42;99271.84;;;7.62;100.00
56811;BME280;42691;47.234;27.494;2022-11-20T08:39:07;99287.38;;;7.62;100.00
56811;BME280;42691;47.234;27.494;2022-11-20T08:41:33;99310.41;;;7.68;100.00
56811;BME280;42691;47.234;27.494;2022-11-20T08:44:00;99313.78;;;7.70;100.00
56811;BME280;42691;47.234;27.494;2022-11-20T08:46:30;99310.94;;;7.76;100.00
56811;BME280;42691;47.234;27.494;2022-11-20T08:48:58;99318.53;;;7.80;100.00
56811;BME280;42691;47.234;27.494;2022-11-20T08:51:23;99320.84;;;7.87;100.00
56811;BME280;42691;47.234;27.494;2022-11-20T08:53:48;99316.44;;;7.89;100.00
56811;BME280;42691;47.234;27.494;2022-11-20T08:56:14;99310.28;;;7.91;100.00
56811;BME280;42691;47.234;27.494;2022-11-20T08:58:40;99306.09;;;7.89;100.00
56811;BME280;42691;47.234;27.494;2022-11-20T09:01:06;99314.44;;;7.95;100.00
56811;BME280;42691;47.234;27.494;2022-11-20T09:03:31;99304.91;;;7.96;100.00
56811;BME280;42691;47.234;27.494;2022-11-20T09:05:59;99294.69;;;7.93;100.00
56811;BME280;42691;47.234;27.494;2022-11-20T09:08:25;99292.81;;;7.96;100.00
56811;BME280;42691;47.234;27.494;2022-11-20T09:10:52;99269.91;;;7.87;100.00
56811;BME280;42691;47.234;27.494;2022-11-20T09:13:18;99288.66;;;7.92;100.00
56811;BME280;42691;47.234;27.494;2022-11-20T09:15:43;99292.09;;;7.93;100.00
56811;BME280;42691;47.234;27.494;2022-11-20T09:18:08;99300.56;;;7.96;100.00
56811;BME280;42691;47.234;27.494;2022-11-20T09:20:34;99288.47;;;7.97;100.00
56811;BME280;42691;47.234;27.494;2022-11-20T09:23:00;99277.25;;;7.96;100.00
56811;BME280;42691;47.234;27.494;2022-11-20T09:25:25;99274.75;;;7.95;100.00
56811;BME280;42691;47.234;27.494;2022-11-20T09:27:58;99266.34;;;7.90;100.00
56811;BME280;42691;47.234;27.494;2022-11-20T09:30:24;99245.03;;;7.83;100.00
56811;BME280;42691;47.234;27.494;2022-11-20T09:32:50;99245.41;;;7.74;100.00
56811;BME280;42691;47.234;27.494;2022-11-20T09:35:15;99270.09;;;7.82;100.00
56811;BME280;42691;47.234;27.494;2022-11-20T09:37:43;99260.44;;;7.86;100.00
56811;BME280;42691;47.234;27.494;2022-11-20T09:40:21;99257.22;;;7.81;100.00
56811;BME280;42691;47.234;27.494;2022-11-20T09:43:08;99242.53;;;7.81;100.00
56811;BME280;42691;47.234;27.494;2022-11-20T09:45:54;99243.16;;;7.87;100.00
56811;BME280;42691;47.234;27.494;2022-11-20T09:52:00;99266.06;;;7.96;100.00
56811;BME280;42691;47.234;27.494;2022-11-20T09:54:33;99253.19;;;7.94;100.00
56811;BME280;42691;47.234;27.494;2022-11-20T09:57:03;99271.16;;;7.97;100.00
56811;BME280;42691;47.234;27.494;2022-11-20T09:59:47;99273.63;;;8.00;100.00
56811;BME280;42691;47.234;27.494;2022-11-20T10:04:57;99262.97;;;8.06;100.00
56811;BME280;42691;47.234;27.494;2022-11-20T10:10:03;99232.66;;;8.08;100.00
56811;BME280;42691;47.234;27.494;2022-11-20T10:25:39;99204.09;;;7.91;100.00
56811;BME280;42691;47.234;27.494;2022-11-20T10:31:31;99224.06;;;8.08;100.00
56811;BME280;42691;47.234;27.494;2022-11-20T10:34:02;99216.22;;;8.09;100.00
56811;BME280;42691;47.234;27.494;2022-11-20T10:36:37;99190.44;;;8.06;100.00
56811;BME280;42691;47.234;27.494;2022-11-20T10:39:15;99171.00;;;7.98;100.00
56811;BME280;42691;47.234;27.494;2022-11-20T10:41:42;99181.56;;;7.93;100.00
56811;BME280;42691;47.234;27.494;2022-11-20T10:44:27;99167.91;;;7.90;100.00
56811;BME280;42691;47.234;27.494;2022-11-20T10:47:14;99173.25;;;7.87;100.00
56811;BME280;42691;47.234;27.494;2022-11-20T10:49:41;99189.63;;;7.87;100.00
56811;BME280;42691;47.234;27.494;2022-11-20T11:00:24;99204.44;;;8.02;100.00
56811;BME280;42691;47.234;27.494;2022-11-20T11:02:52;99197.44;;;8.04;100.00
56811;BME280;42691;47.234;27.494;2022-11-20T11:05:41;99200.97;;;8.03;100.00
56811;BME280;42691;47.234;27.494;2022-11-20T11:08:14;99184.72;;;8.00;100.00
56811;BME280;42691;47.234;27.494;2022-11-20T11:11:00;99184.44;;;8.06;100.00
56811;BME280;42691;47.234;27.494;2022-11-20T11:13:30;99189.41;;;8.10;100.00
56811;BME280;42691;47.234;27.494;2022-11-20T11:15:56;99185.75;;;8.14;100.00
56811;BME280;42691;47.234;27.494;2022-11-20T11:18:27;99173.78;;;8.12;100.00
56811;BME280;42691;47.234;27.494;2022-11-20T11:20:54;99162.50;;;8.13;100.00
56811;BME280;42691;47.234;27.494;2022-11-20T11:23:34;99184.97;;;8.12;100.00
56811;BME280;42691;47.234;27.494;2022-11-20T11:26:01;99187.34;;;8.17;100.00
56811;BME280;42691;47.234;27.494;2022-11-20T11:28:27;99203.63;;;8.21;100.00
56811;BME280;42691;47.234;27.494;2022-11-20T11:30:54;99188.63;;;8.27;100.00
56811;BME280;42691;47.234;27.494;2022-11-20T11:36:03;99193.59;;;8.32;100.00
56811;BME280;42691;47.234;27.494;2022-11-20T11:38:41;99197.88;;;8.33;100.00
56811;BME280;42691;47.234;27.494;2022-11-20T11:41:14;99189.41;;;8.29;100.00
56811;BME280;42691;47.234;27.494;2022-11-20T11:43:51;99202.88;;;8.37;100.00
56811;BME280;42691;47.234;27.494;2022-11-20T11:46:36;99169.19;;;8.37;100.00
56811;BME280;42691;47.234;27.494;2022-11-20T11:52:04;99160.97;;;8.28;100.00
56811;BME280;42691;47.234;27.494;2022-11-20T11:54:47;99175.41;;;8.33;100.00
56811;BME280;42691;47.234;27.494;2022-11-20T11:57:22;99144.50;;;8.29;100.00
56811;BME280;42691;47.234;27.494;2022-11-20T12:00:05;99202.09;;;8.35;100.00
56811;BME280;42691;47.234;27.494;2022-11-20T12:06:01;99185.56;;;8.38;100.00
56811;BME280;42691;47.234;27.494;2022-11-20T12:15:52;99191.66;;;8.37;100.00
56811;BME280;42691;47.234;27.494;2022-11-20T12:18:20;99246.66;;;8.43;100.00
56811;BME280;42691;47.234;27.494;2022-11-20T12:26:58;99196.25;;;8.49;100.00
56811;BME280;42691;47.234;27.494;2022-11-20T12:39:49;99150.38;;;8.51;100.00
56811;BME280;42691;47.234;27.494;2022-11-20T12:42:42;99164.38;;;8.47;100.00
56811;BME280;42691;47.234;27.494;2022-11-20T12:48:42;99157.53;;;8.46;100.00
56811;BME280;42691;47.234;27.494;2022-11-20T13:06:39;99150.22;;;8.54;100.00
56811;BME280;42691;47.234;27.494;2022-11-20T13:09:12;99144.16;;;8.55;100.00
56811;BME280;42691;47.234;27.494;2022-11-20T13:11:56;99158.72;;;8.58;100.00
56811;BME280;42691;47.234;27.494;2022-11-20T13:19:52;99137.75;;;8.62;100.00
56811;BME280;42691;47.234;27.494;2022-11-20T13:22:48;99143.69;;;8.64;100.00
56811;BME280;42691;47.234;27.494;2022-11-20T13:25:28;99127.53;;;8.59;100.00
56811;BME280;42691;47.234;27.494;2022-11-20T13:27:56;99138.50;;;8.64;100.00
56811;BME280;42691;47.234;27.494;2022-11-20T13:30:26;99147.06;;;8.66;100.00
56811;BME280;42691;47.234;27.494;2022-11-20T13:35:54;99158.19;;;8.68;100.00
56811;BME280;42691;47.234;27.494;2022-11-20T13:38:19;99137.59;;;8.65;100.00
56811;BME280;42691;47.234;27.494;2022-11-20T13:40:55;99142.78;;;8.65;100.00
56811;BME280;42691;47.234;27.494;2022-11-20T13:43:22;99135.00;;;8.65;100.00
56811;BME280;42691;47.234;27.494;2022-11-20T13:48:29;99119.69;;;8.61;100.00
56811;BME280;42691;47.234;27.494;2022-11-20T14:01:57;99143.63;;;8.66;100.00
56811;BME280;42691;47.234;27.494;2022-11-20T14:04:38;99119.75;;;8.59;100.00
56811;BME280;42691;47.234;27.494;2022-11-20T14:07:06;99133.94;;;8.69;100.00
56811;BME280;42691;47.234;27.494;2022-11-20T14:09:33;99129.81;;;8.65;100.00
56811;BME280;42691;47.234;27.494;2022-11-20T14:11:59;99139.44;;;8.63;100.00
56811;BME280;42691;47.234;27.494;2022-11-20T14:14:29;99134.41;;;8.60;100.00
56811;BME280;42691;47.234;27.494;2022-11-20T14:17:15;99135.91;;;8.64;100.00
56811;BME280;42691;47.234;27.494;2022-11-20T14:19:44;99137.66;;;8.64;100.00
56811;BME280;42691;47.234;27.494;2022-11-20T14:24:39;99144.63;;;8.63;100.00
56811;BME280;42691;47.234;27.494;2022-11-20T14:27:04;99127.31;;;8.64;100.00
56811;BME280;42691;47.234;27.494;2022-11-20T14:29:36;99122.03;;;8.65;100.00
56811;BME280;42691;47.234;27.494;2022-11-20T14:32:03;99114.50;;;8.61;100.00
56811;BME280;42691;47.234;27.494;2022-11-20T14:34:31;99121.59;;;8.57;100.00
56811;BME280;42691;47.234;27.494;2022-11-20T14:37:02;99145.75;;;8.58;100.00
56811;BME280;42691;47.234;27.494;2022-11-20T14:39:35;99140.56;;;8.58;100.00
56811;BME280;42691;47.234;27.494;2022-11-20T14:42:03;99131.03;;;8.58;100.00
56811;BME280;42691;47.234;27.494;2022-11-20T14:44:36;99135.38;;;9.09;100.00
56811;BME280;42691;47.234;27.494;2022-11-20T14:47:03;99140.72;;;8.89;100.00
56811;BME280;42691;47.234;27.494;2022-11-20T14:49:30;99139.28;;;8.84;100.00
56811;BME280;42691;47.234;27.494;2022-11-20T14:52:02;99136.84;;;8.81;100.00
56811;BME280;42691;47.234;27.494;2022-11-20T14:54:27;99128.53;;;8.74;100.00
56811;BME280;42691;47.234;27.494;2022-11-20T14:56:59;99122.78;;;8.85;100.00